sensor_id;sensor_type;location;lat;lon;timestamp;P1;durP1;ratioP1;P2;durP2;ratioP2
1545;SDS011;766;51.502;9.752;2023-04-12T00:00:05;8.23;;;1.35;;
1545;SDS011;766;51.502;9.752;2023-04-12T00:02:42;3.17;;;0.88;;
1545;SDS011;766;51.502;9.752;2023-04-12T00:05:11;4.95;;;1.10;;
1545;SDS011;766;51.502;9.752;2023-04-12T00:07:40;8.77;;;1.23;;
1545;SDS011;766;51.502;9.752;2023-04-12T00:10:12;5.32;;;1.40;;
1545;SDS011;766;51.502;9.752;2023-04-12T00:12:41;3.75;;;1.33;;
1545;SDS011;766;51.502;9.752;2023-04-12T00:15:09;4.25;;;1.35;;
1545;SDS011;766;51.502;9.752;2023-04-12T00:17:38;3.88;;;1.52;;
1545;SDS011;766;51.502;9.752;2023-04-12T00:20:10;6.10;;;1.63;;
1545;SDS011;766;51.502;9.752;2023-04-12T00:22:39;5.30;;;1.50;;
1545;SDS011;766;51.502;9.752;2023-04-12T00:25:08;5.82;;;1.35;;
1545;SDS011;766;51.502;9.752;2023-04-12T00:27:37;6.70;;;1.38;;
1545;SDS011;766;51.502;9.752;2023-04-12T00:30:06;7.70;;;1.55;;
1545;SDS011;766;51.502;9.752;2023-04-12T00:32:35;2.30;;;0.90;;
1545;SDS011;766;51.502;9.752;2023-04-12T00:35:04;4.85;;;1.23;;
1545;SDS011;766;51.502;9.752;2023-04-12T00:37:35;4.05;;;1.10;;
1545;SDS011;766;51.502;9.752;2023-04-12T00:40:04;10.15;;;1.13;;
1545;SDS011;766;51.502;9.752;2023-04-12T00:42:35;2.70;;;1.00;;
1545;SDS011;766;51.502;9.752;2023-04-12T00:45:04;4.20;;;1.00;;
1545;SDS011;766;51.502;9.752;2023-04-12T00:47:35;6.20;;;1.88;;
1545;SDS011;766;51.502;9.752;2023-04-12T00:50:05;4.38;;;1.38;;
1545;SDS011;766;51.502;9.752;2023-04-12T00:52:36;9.77;;;1.23;;
1545;SDS011;766;51.502;9.752;2023-04-12T00:55:07;5.85;;;1.13;;
1545;SDS011;766;51.502;9.752;2023-04-12T00:57:36;6.70;;;1.40;;
1545;SDS011;766;51.502;9.752;2023-04-12T01:00:08;3.83;;;1.20;;
1545;SDS011;766;51.502;9.752;2023-04-12T01:02:39;11.00;;;1.17;;
1545;SDS011;766;51.502;9.752;2023-04-12T01:05:16;4.55;;;1.60;;
1545;SDS011;766;51.502;9.752;2023-04-12T01:07:52;13.25;;;1.75;;
1545;SDS011;766;51.502;9.752;2023-04-12T01:10:33;10.63;;;5.85;;
1545;SDS011;766;51.502;9.752;2023-04-12T01:13:15;5.35;;;1.70;;
1545;SDS011;766;51.502;9.752;2023-04-12T01:15:56;6.55;;;1.30;;
1545;SDS011;766;51.502;9.752;2023-04-12T01:18:29;6.13;;;1.27;;
1545;SDS011;766;51.502;9.752;2023-04-12T01:21:02;7.97;;;1.05;;
1545;SDS011;766;51.502;9.752;2023-04-12T01:23:57;6.22;;;1.30;;
1545;SDS011;766;51.502;9.752;2023-04-12T01:26:40;3.88;;;1.42;;
1545;SDS011;766;51.502;9.752;2023-04-12T01:29:12;5.60;;;1.38;;
1545;SDS011;766;51.502;9.752;2023-04-12T01:31:44;4.05;;;1.00;;
1545;SDS011;766;51.502;9.752;2023-04-12T01:34:17;7.03;;;1.42;;
1545;SDS011;766;51.502;9.752;2023-04-12T01:36:47;6.43;;;1.38;;
1545;SDS011;766;51.502;9.752;2023-04-12T01:39:17;6.35;;;1.60;;
1545;SDS011;766;51.502;9.752;2023-04-12T01:41:45;6.03;;;1.33;;
1545;SDS011;766;51.502;9.752;2023-04-12T01:44:19;4.50;;;1.38;;
1545;SDS011;766;51.502;9.752;2023-04-12T01:46:48;6.50;;;1.20;;
1545;SDS011;766;51.502;9.752;2023-04-12T01:49:17;3.30;;;1.35;;
1545;SDS011;766;51.502;9.752;2023-04-12T01:51:50;4.10;;;1.00;;
1545;SDS011;766;51.502;9.752;2023-04-12T01:54:23;4.45;;;0.95;;
1545;SDS011;766;51.502;9.752;2023-04-12T01:56:55;5.88;;;1.35;;
1545;SDS011;766;51.502;9.752;2023-04-12T01:59:29;11.75;;;1.70;;
1545;SDS011;766;51.502;9.752;2023-04-12T02:02:00;3.05;;;0.90;;
1545;SDS011;766;51.502;9.752;2023-04-12T02:04:29;4.15;;;1.50;;
1545;SDS011;766;51.502;9.752;2023-04-12T02:06:59;5.28;;;1.40;;
1545;SDS011;766;51.502;9.752;2023-04-12T02:09:34;6.47;;;1.45;;
1545;SDS011;766;51.502;9.752;2023-04-12T02:12:04;4.95;;;1.20;;
1545;SDS011;766;51.502;9.752;2023-04-12T02:14:35;3.28;;;1.10;;
1545;SDS011;766;51.502;9.752;2023-04-12T02:17:04;5.78;;;1.40;;
1545;SDS011;766;51.502;9.752;2023-04-12T02:19:34;4.82;;;1.02;;
1545;SDS011;766;51.502;9.752;2023-04-12T02:22:02;8.55;;;1.50;;
1545;SDS011;766;51.502;9.752;2023-04-12T02:24:31;6.28;;;1.15;;
1545;SDS011;766;51.502;9.752;2023-04-12T02:26:59;5.60;;;1.25;;
1545;SDS011;766;51.502;9.752;2023-04-12T02:29:28;3.63;;;1.27;;
1545;SDS011;766;51.502;9.752;2023-04-12T02:31:58;4.53;;;1.00;;
1545;SDS011;766;51.502;9.752;2023-04-12T02:34:26;5.82;;;1.25;;
1545;SDS011;766;51.502;9.752;2023-04-12T02:36:59;8.10;;;1.13;;
1545;SDS011;766;51.502;9.752;2023-04-12T02:39:29;10.45;;;1.70;;
1545;SDS011;766;51.502;9.752;2023-04-12T02:41:59;5.15;;;0.90;;
1545;SDS011;766;51.502;9.752;2023-04-12T02:44:28;6.57;;;1.40;;
1545;SDS011;766;51.502;9.752;2023-04-12T02:46:57;4.75;;;1.08;;
1545;SDS011;766;51.502;9.752;2023-04-12T02:49:26;3.15;;;1.08;;
1545;SDS011;766;51.502;9.752;2023-04-12T02:51:55;6.93;;;1.35;;
1545;SDS011;766;51.502;9.752;2023-04-12T02:54:24;5.43;;;1.40;;
1545;SDS011;766;51.502;9.752;2023-04-12T02:56:52;7.88;;;1.50;;
1545;SDS011;766;51.502;9.752;2023-04-12T02:59:20;5.07;;;1.27;;
1545;SDS011;766;51.502;9.752;2023-04-12T03:01:50;9.50;;;1.92;;
1545;SDS011;766;51.502;9.752;2023-04-12T03:04:20;5.07;;;1.00;;
1545;SDS011;766;51.502;9.752;2023-04-12T03:06:56;2.15;;;1.10;;
1545;SDS011;766;51.502;9.752;2023-04-12T03:09:24;5.22;;;1.27;;
1545;SDS011;766;51.502;9.752;2023-04-12T03:11:53;4.93;;;1.15;;
1545;SDS011;766;51.502;9.752;2023-04-12T03:14:21;3.75;;;1.10;;
1545;SDS011;766;51.502;9.752;2023-04-12T03:16:49;4.75;;;1.10;;
1545;SDS011;766;51.502;9.752;2023-04-12T03:19:19;5.30;;;1.40;;
1545;SDS011;766;51.502;9.752;2023-04-12T03:21:49;4.88;;;1.35;;
1545;SDS011;766;51.502;9.752;2023-04-12T03:24:17;2.85;;;1.30;;
1545;SDS011;766;51.502;9.752;2023-04-12T03:26:46;8.13;;;1.33;;
1545;SDS011;766;51.502;9.752;2023-04-12T03:29:15;5.18;;;1.40;;
1545;SDS011;766;51.502;9.752;2023-04-12T03:31:44;6.57;;;1.48;;
1545;SDS011;766;51.502;9.752;2023-04-12T03:34:12;2.85;;;1.20;;
1545;SDS011;766;51.502;9.752;2023-04-12T03:36:42;5.35;;;1.40;;
1545;SDS011;766;51.502;9.752;2023-04-12T03:39:11;7.03;;;1.40;;
1545;SDS011;766;51.502;9.752;2023-04-12T03:41:40;8.02;;;1.20;;
1545;SDS011;766;51.502;9.752;2023-04-12T03:44:08;3.60;;;1.05;;
1545;SDS011;766;51.502;9.752;2023-04-12T03:46:36;6.45;;;1.58;;
1545;SDS011;766;51.502;9.752;2023-04-12T03:49:05;4.43;;;1.35;;
1545;SDS011;766;51.502;9.752;2023-04-12T03:51:34;9.80;;;1.70;;
1545;SDS011;766;51.502;9.752;2023-04-12T03:54:09;8.60;;;1.35;;
1545;SDS011;766;51.502;9.752;2023-04-12T03:56:40;9.43;;;1.67;;
1545;SDS011;766;51.502;9.752;2023-04-12T03:59:11;2.03;;;1.02;;
1545;SDS011;766;51.502;9.752;2023-04-12T04:01:41;9.95;;;1.33;;
1545;SDS011;766;51.502;9.752;2023-04-12T04:04:09;4.38;;;1.25;;
1545;SDS011;766;51.502;9.752;2023-04-12T04:06:38;9.45;;;1.50;;
1545;SDS011;766;51.502;9.752;2023-04-12T04:09:09;6.30;;;1.48;;
1545;SDS011;766;51.502;9.752;2023-04-12T04:11:38;12.88;;;1.42;;
1545;SDS011;766;51.502;9.752;2023-04-12T04:14:06;7.20;;;1.45;;
1545;SDS011;766;51.502;9.752;2023-04-12T04:16:35;6.90;;;1.65;;
1545;SDS011;766;51.502;9.752;2023-04-12T04:19:04;7.93;;;1.25;;
1545;SDS011;766;51.502;9.752;2023-04-12T04:21:32;11.02;;;1.92;;
1545;SDS011;766;51.502;9.752;2023-04-12T04:24:01;6.10;;;1.45;;
1545;SDS011;766;51.502;9.752;2023-04-12T04:26:31;4.60;;;1.40;;
1545;SDS011;766;51.502;9.752;2023-04-12T04:28:59;4.65;;;1.27;;
1545;SDS011;766;51.502;9.752;2023-04-12T04:31:29;10.68;;;2.10;;
1545;SDS011;766;51.502;9.752;2023-04-12T04:34:00;7.88;;;1.30;;
1545;SDS011;766;51.502;9.752;2023-04-12T04:36:32;6.47;;;1.50;;
1545;SDS011;766;51.502;9.752;2023-04-12T04:39:01;6.20;;;1.33;;
1545;SDS011;766;51.502;9.752;2023-04-12T04:41:31;7.43;;;1.42;;
1545;SDS011;766;51.502;9.752;2023-04-12T04:44:05;3.13;;;1.15;;
1545;SDS011;766;51.502;9.752;2023-04-12T04:46:36;8.80;;;1.40;;
1545;SDS011;766;51.502;9.752;2023-04-12T04:49:07;5.75;;;1.55;;
1545;SDS011;766;51.502;9.752;2023-04-12T04:51:35;6.13;;;1.48;;
1545;SDS011;766;51.502;9.752;2023-04-12T04:54:03;8.73;;;1.30;;
1545;SDS011;766;51.502;9.752;2023-04-12T04:56:36;7.45;;;1.38;;
1545;SDS011;766;51.502;9.752;2023-04-12T04:59:04;7.95;;;1.17;;
1545;SDS011;766;51.502;9.752;2023-04-12T05:01:33;4.38;;;1.20;;
1545;SDS011;766;51.502;9.752;2023-04-12T05:04:02;5.82;;;1.70;;
1545;SDS011;766;51.502;9.752;2023-04-12T05:06:33;10.15;;;1.77;;
1545;SDS011;766;51.502;9.752;2023-04-12T05:09:01;9.23;;;1.70;;
1545;SDS011;766;51.502;9.752;2023-04-12T05:11:30;6.55;;;1.98;;
1545;SDS011;766;51.502;9.752;2023-04-12T05:14:00;7.38;;;1.50;;
1545;SDS011;766;51.502;9.752;2023-04-12T05:16:28;5.15;;;1.50;;
1545;SDS011;766;51.502;9.752;2023-04-12T05:18:57;10.18;;;2.00;;
1545;SDS011;766;51.502;9.752;2023-04-12T05:21:28;5.63;;;1.42;;
1545;SDS011;766;51.502;9.752;2023-04-12T05:23:56;6.28;;;1.55;;
1545;SDS011;766;51.502;9.752;2023-04-12T05:26:24;6.82;;;1.63;;
1545;SDS011;766;51.502;9.752;2023-04-12T05:28:57;4.85;;;1.50;;
1545;SDS011;766;51.502;9.752;2023-04-12T05:31:27;3.78;;;1.20;;
1545;SDS011;766;51.502;9.752;2023-04-12T05:33:56;6.80;;;1.80;;
1545;SDS011;766;51.502;9.752;2023-04-12T05:36:25;4.95;;;1.50;;
1545;SDS011;766;51.502;9.752;2023-04-12T05:38:53;6.90;;;1.50;;
1545;SDS011;766;51.502;9.752;2023-04-12T05:41:22;6.20;;;1.67;;
1545;SDS011;766;51.502;9.752;2023-04-12T05:43:51;5.22;;;1.30;;
1545;SDS011;766;51.502;9.752;2023-04-12T05:46:20;3.78;;;1.50;;
1545;SDS011;766;51.502;9.752;2023-04-12T05:48:50;5.85;;;1.38;;
1545;SDS011;766;51.502;9.752;2023-04-12T05:51:19;4.47;;;1.35;;
1545;SDS011;766;51.502;9.752;2023-04-12T05:54:09;11.10;;;1.75;;
1545;SDS011;766;51.502;9.752;2023-04-12T05:56:37;5.47;;;1.45;;
1545;SDS011;766;51.502;9.752;2023-04-12T05:59:06;5.22;;;1.50;;
1545;SDS011;766;51.502;9.752;2023-04-12T06:01:36;6.88;;;1.73;;
1545;SDS011;766;51.502;9.752;2023-04-12T06:04:11;5.45;;;1.42;;
1545;SDS011;766;51.502;9.752;2023-04-12T06:06:40;8.20;;;1.55;;
1545;SDS011;766;51.502;9.752;2023-04-12T06:09:11;7.28;;;1.70;;
1545;SDS011;766;51.502;9.752;2023-04-12T06:11:42;5.72;;;1.23;;
1545;SDS011;766;51.502;9.752;2023-04-12T06:14:10;7.10;;;1.60;;
1545;SDS011;766;51.502;9.752;2023-04-12T06:16:38;3.15;;;1.42;;
1545;SDS011;766;51.502;9.752;2023-04-12T06:19:07;4.82;;;1.08;;
1545;SDS011;766;51.502;9.752;2023-04-12T06:21:37;8.02;;;1.63;;
1545;SDS011;766;51.502;9.752;2023-04-12T06:24:06;6.00;;;1.50;;
1545;SDS011;766;51.502;9.752;2023-04-12T06:26:35;10.00;;;1.75;;
1545;SDS011;766;51.502;9.752;2023-04-12T06:29:05;5.07;;;1.52;;
1545;SDS011;766;51.502;9.752;2023-04-12T06:31:34;3.50;;;1.48;;
1545;SDS011;766;51.502;9.752;2023-04-12T06:34:03;6.05;;;1.55;;
1545;SDS011;766;51.502;9.752;2023-04-12T06:36:31;3.95;;;1.48;;
1545;SDS011;766;51.502;9.752;2023-04-12T06:39:02;8.10;;;1.67;;
1545;SDS011;766;51.502;9.752;2023-04-12T06:41:30;9.82;;;2.05;;
1545;SDS011;766;51.502;9.752;2023-04-12T06:43:59;10.23;;;2.53;;
1545;SDS011;766;51.502;9.752;2023-04-12T06:46:27;10.20;;;2.00;;
1545;SDS011;766;51.502;9.752;2023-04-12T06:48:56;4.40;;;1.65;;
1545;SDS011;766;51.502;9.752;2023-04-12T06:51:25;7.63;;;1.77;;
1545;SDS011;766;51.502;9.752;2023-04-12T06:53:54;3.20;;;1.60;;
1545;SDS011;766;51.502;9.752;2023-04-12T06:56:27;4.35;;;1.60;;
1545;SDS011;766;51.502;9.752;2023-04-12T06:58:55;6.45;;;1.38;;
1545;SDS011;766;51.502;9.752;2023-04-12T07:01:24;6.32;;;1.25;;
1545;SDS011;766;51.502;9.752;2023-04-12T07:03:53;6.85;;;1.58;;
1545;SDS011;766;51.502;9.752;2023-04-12T07:06:22;7.93;;;1.60;;
1545;SDS011;766;51.502;9.752;2023-04-12T07:08:51;4.82;;;1.92;;
1545;SDS011;766;51.502;9.752;2023-04-12T07:11:20;5.07;;;1.73;;
1545;SDS011;766;51.502;9.752;2023-04-12T07:13:51;6.18;;;1.48;;
1545;SDS011;766;51.502;9.752;2023-04-12T07:16:20;6.88;;;2.30;;
1545;SDS011;766;51.502;9.752;2023-04-12T07:18:49;5.40;;;2.00;;
1545;SDS011;766;51.502;9.752;2023-04-12T07:21:18;7.93;;;1.40;;
1545;SDS011;766;51.502;9.752;2023-04-12T07:23:47;5.80;;;1.50;;
1545;SDS011;766;51.502;9.752;2023-04-12T07:26:16;5.55;;;1.70;;
1545;SDS011;766;51.502;9.752;2023-04-12T07:28:45;7.70;;;1.83;;
1545;SDS011;766;51.502;9.752;2023-04-12T07:31:15;6.50;;;2.03;;
1545;SDS011;766;51.502;9.752;2023-04-12T07:33:43;3.90;;;1.38;;
1545;SDS011;766;51.502;9.752;2023-04-12T07:36:12;5.90;;;1.75;;
1545;SDS011;766;51.502;9.752;2023-04-12T07:38:42;5.10;;;1.70;;
1545;SDS011;766;51.502;9.752;2023-04-12T07:41:10;4.60;;;1.80;;
1545;SDS011;766;51.502;9.752;2023-04-12T07:43:38;3.03;;;1.20;;
1545;SDS011;766;51.502;9.752;2023-04-12T07:46:06;3.90;;;1.50;;
1545;SDS011;766;51.502;9.752;2023-04-12T07:48:36;3.00;;;1.30;;
1545;SDS011;766;51.502;9.752;2023-04-12T07:51:05;4.13;;;1.52;;
1545;SDS011;766;51.502;9.752;2023-04-12T07:53:33;4.57;;;1.73;;
1545;SDS011;766;51.502;9.752;2023-04-12T07:56:02;6.03;;;1.70;;
1545;SDS011;766;51.502;9.752;2023-04-12T07:58:32;5.68;;;1.80;;
1545;SDS011;766;51.502;9.752;2023-04-12T08:01:01;10.25;;;2.05;;
1545;SDS011;766;51.502;9.752;2023-04-12T08:03:29;9.23;;;2.67;;
1545;SDS011;766;51.502;9.752;2023-04-12T08:05:59;3.53;;;1.45;;
1545;SDS011;766;51.502;9.752;2023-04-12T08:08:28;6.38;;;1.60;;
1545;SDS011;766;51.502;9.752;2023-04-12T08:10:56;4.65;;;1.73;;
1545;SDS011;766;51.502;9.752;2023-04-12T08:13:25;3.90;;;1.88;;
1545;SDS011;766;51.502;9.752;2023-04-12T08:15:54;10.50;;;1.90;;
1545;SDS011;766;51.502;9.752;2023-04-12T08:18:23;8.30;;;2.38;;
1545;SDS011;766;51.502;9.752;2023-04-12T08:20:52;7.05;;;2.00;;
1545;SDS011;766;51.502;9.752;2023-04-12T08:23:21;5.50;;;2.00;;
1545;SDS011;766;51.502;9.752;2023-04-12T08:25:51;5.32;;;2.00;;
1545;SDS011;766;51.502;9.752;2023-04-12T08:28:24;6.00;;;1.80;;
1545;SDS011;766;51.502;9.752;2023-04-12T08:30:54;2.55;;;1.75;;
1545;SDS011;766;51.502;9.752;2023-04-12T08:33:22;5.32;;;2.15;;
1545;SDS011;766;51.502;9.752;2023-04-12T08:35:50;5.75;;;2.42;;
1545;SDS011;766;51.502;9.752;2023-04-12T08:38:19;3.20;;;1.88;;
1545;SDS011;766;51.502;9.752;2023-04-12T08:41:08;7.10;;;2.40;;
1545;SDS011;766;51.502;9.752;2023-04-12T08:43:37;4.82;;;2.10;;
1545;SDS011;766;51.502;9.752;2023-04-12T08:46:10;7.18;;;2.05;;
1545;SDS011;766;51.502;9.752;2023-04-12T08:48:41;5.82;;;2.45;;
1545;SDS011;766;51.502;9.752;2023-04-12T08:51:12;3.60;;;1.85;;
1545;SDS011;766;51.502;9.752;2023-04-12T08:53:42;9.10;;;3.42;;
1545;SDS011;766;51.502;9.752;2023-04-12T08:56:12;8.48;;;2.70;;
1545;SDS011;766;51.502;9.752;2023-04-12T08:58:44;5.40;;;2.50;;
1545;SDS011;766;51.502;9.752;2023-04-12T09:01:15;3.70;;;2.42;;
1545;SDS011;766;51.502;9.752;2023-04-12T09:03:45;8.40;;;2.33;;
1545;SDS011;766;51.502;9.752;2023-04-12T09:06:13;5.63;;;2.53;;
1545;SDS011;766;51.502;9.752;2023-04-12T09:08:53;3.80;;;2.45;;
1545;SDS011;766;51.502;9.752;2023-04-12T09:11:24;6.72;;;2.25;;
1545;SDS011;766;51.502;9.752;2023-04-12T09:13:54;4.00;;;2.45;;
1545;SDS011;766;51.502;9.752;2023-04-12T09:16:34;7.60;;;2.50;;
1545;SDS011;766;51.502;9.752;2023-04-12T09:19:04;3.47;;;1.40;;
1545;SDS011;766;51.502;9.752;2023-04-12T09:21:33;7.40;;;2.42;;
1545;SDS011;766;51.502;9.752;2023-04-12T09:24:03;3.13;;;2.17;;
1545;SDS011;766;51.502;9.752;2023-04-12T09:26:40;5.25;;;2.05;;
1545;SDS011;766;51.502;9.752;2023-04-12T09:29:20;4.32;;;2.00;;
1545;SDS011;766;51.502;9.752;2023-04-12T09:31:54;4.57;;;2.05;;
1545;SDS011;766;51.502;9.752;2023-04-12T09:34:23;5.55;;;1.70;;
1545;SDS011;766;51.502;9.752;2023-04-12T09:36:53;2.47;;;1.55;;
1545;SDS011;766;51.502;9.752;2023-04-12T09:39:32;6.30;;;2.10;;
1545;SDS011;766;51.502;9.752;2023-04-12T09:42:06;1.70;;;1.60;;
1545;SDS011;766;51.502;9.752;2023-04-12T09:44:55;5.70;;;1.70;;
1545;SDS011;766;51.502;9.752;2023-04-12T09:47:35;2.25;;;1.20;;
1545;SDS011;766;51.502;9.752;2023-04-12T09:50:06;3.75;;;1.58;;
1545;SDS011;766;51.502;9.752;2023-04-12T09:52:36;6.70;;;1.73;;
1545;SDS011;766;51.502;9.752;2023-04-12T09:55:07;3.05;;;1.50;;
1545;SDS011;766;51.502;9.752;2023-04-12T09:57:39;3.70;;;1.65;;
1545;SDS011;766;51.502;9.752;2023-04-12T10:00:09;4.07;;;1.60;;
1545;SDS011;766;51.502;9.752;2023-04-12T10:02:45;5.05;;;1.52;;
1545;SDS011;766;51.502;9.752;2023-04-12T10:05:17;4.13;;;1.50;;
1545;SDS011;766;51.502;9.752;2023-04-12T10:07:48;1.80;;;1.25;;
1545;SDS011;766;51.502;9.752;2023-04-12T10:10:17;2.80;;;1.60;;
1545;SDS011;766;51.502;9.752;2023-04-12T10:12:48;4.03;;;1.33;;
1545;SDS011;766;51.502;9.752;2023-04-12T10:15:17;2.78;;;1.40;;
1545;SDS011;766;51.502;9.752;2023-04-12T10:17:48;6.03;;;1.58;;
1545;SDS011;766;51.502;9.752;2023-04-12T10:20:21;3.80;;;1.38;;
1545;SDS011;766;51.502;9.752;2023-04-12T10:22:54;1.60;;;1.35;;
1545;SDS011;766;51.502;9.752;2023-04-12T10:25:25;2.58;;;1.17;;
1545;SDS011;766;51.502;9.752;2023-04-12T10:28:00;2.33;;;1.30;;
1545;SDS011;766;51.502;9.752;2023-04-12T10:30:41;1.88;;;1.05;;
1545;SDS011;766;51.502;9.752;2023-04-12T10:33:11;2.85;;;1.42;;
1545;SDS011;766;51.502;9.752;2023-04-12T10:35:52;2.22;;;1.23;;
1545;SDS011;766;51.502;9.752;2023-04-12T10:38:26;1.63;;;1.10;;
1545;SDS011;766;51.502;9.752;2023-04-12T10:41:14;2.47;;;1.13;;
1545;SDS011;766;51.502;9.752;2023-04-12T10:43:45;2.13;;;1.10;;
1545;SDS011;766;51.502;9.752;2023-04-12T10:49:13;2.72;;;1.63;;
1545;SDS011;766;51.502;9.752;2023-04-12T10:54:44;1.95;;;1.20;;
1545;SDS011;766;51.502;9.752;2023-04-12T11:00:16;1.35;;;0.90;;
1545;SDS011;766;51.502;9.752;2023-04-12T11:08:45;3.85;;;1.30;;
1545;SDS011;766;51.502;9.752;2023-04-12T11:11:17;1.50;;;0.90;;
1545;SDS011;766;51.502;9.752;2023-04-12T11:13:53;2.47;;;1.20;;
1545;SDS011;766;51.502;9.752;2023-04-12T11:16:27;5.07;;;1.13;;
1545;SDS011;766;51.502;9.752;2023-04-12T11:18:55;4.22;;;1.13;;
1545;SDS011;766;51.502;9.752;2023-04-12T11:21:24;2.58;;;1.00;;
1545;SDS011;766;51.502;9.752;2023-04-12T11:23:53;1.00;;;0.90;;
1545;SDS011;766;51.502;9.752;2023-04-12T11:26:21;2.08;;;0.75;;
1545;SDS011;766;51.502;9.752;2023-04-12T11:28:50;2.60;;;1.08;;
1545;SDS011;766;51.502;9.752;2023-04-12T11:31:27;2.08;;;1.23;;
1545;SDS011;766;51.502;9.752;2023-04-12T11:34:14;1.25;;;0.85;;
1545;SDS011;766;51.502;9.752;2023-04-12T11:36:43;2.20;;;1.10;;
1545;SDS011;766;51.502;9.752;2023-04-12T11:39:12;2.03;;;1.08;;
1545;SDS011;766;51.502;9.752;2023-04-12T11:41:42;2.50;;;1.23;;
1545;SDS011;766;51.502;9.752;2023-04-12T11:44:11;2.67;;;1.60;;
1545;SDS011;766;51.502;9.752;2023-04-12T11:46:41;4.07;;;1.60;;
1545;SDS011;766;51.502;9.752;2023-04-12T11:49:09;1.08;;;0.90;;
1545;SDS011;766;51.502;9.752;2023-04-12T11:51:42;3.33;;;1.65;;
1545;SDS011;766;51.502;9.752;2023-04-12T11:54:14;3.00;;;1.42;;
1545;SDS011;766;51.502;9.752;2023-04-12T11:56:43;2.60;;;1.30;;
1545;SDS011;766;51.502;9.752;2023-04-12T11:59:11;2.13;;;1.35;;
1545;SDS011;766;51.502;9.752;2023-04-12T12:01:41;6.35;;;1.83;;
1545;SDS011;766;51.502;9.752;2023-04-12T12:04:10;2.92;;;1.30;;
1545;SDS011;766;51.502;9.752;2023-04-12T12:06:39;2.03;;;1.08;;
1545;SDS011;766;51.502;9.752;2023-04-12T12:09:08;2.47;;;1.15;;
1545;SDS011;766;51.502;9.752;2023-04-12T12:11:37;2.10;;;1.00;;
1545;SDS011;766;51.502;9.752;2023-04-12T12:14:11;1.80;;;1.55;;
1545;SDS011;766;51.502;9.752;2023-04-12T12:16:51;1.35;;;1.00;;
1545;SDS011;766;51.502;9.752;2023-04-12T12:19:31;2.17;;;1.20;;
1545;SDS011;766;51.502;9.752;2023-04-12T12:22:10;2.03;;;1.30;;
1545;SDS011;766;51.502;9.752;2023-04-12T12:24:48;6.68;;;1.73;;
1545;SDS011;766;51.502;9.752;2023-04-12T12:27:18;2.85;;;1.17;;
1545;SDS011;766;51.502;9.752;2023-04-12T12:29:49;1.08;;;0.98;;
1545;SDS011;766;51.502;9.752;2023-04-12T12:32:20;3.67;;;0.95;;
1545;SDS011;766;51.502;9.752;2023-04-12T12:34:50;4.25;;;1.20;;
1545;SDS011;766;51.502;9.752;2023-04-12T12:37:22;1.27;;;0.90;;
1545;SDS011;766;51.502;9.752;2023-04-12T12:40:04;2.30;;;1.10;;
1545;SDS011;766;51.502;9.752;2023-04-12T12:42:43;2.03;;;1.20;;
1545;SDS011;766;51.502;9.752;2023-04-12T12:45:12;1.55;;;1.20;;
1545;SDS011;766;51.502;9.752;2023-04-12T12:47:46;1.60;;;1.10;;
1545;SDS011;766;51.502;9.752;2023-04-12T12:50:16;1.83;;;1.67;;
1545;SDS011;766;51.502;9.752;2023-04-12T12:52:44;0.95;;;0.88;;
1545;SDS011;766;51.502;9.752;2023-04-12T12:55:13;2.55;;;1.13;;
1545;SDS011;766;51.502;9.752;2023-04-12T12:57:43;1.27;;;1.02;;
1545;SDS011;766;51.502;9.752;2023-04-12T13:00:31;1.42;;;1.00;;
1545;SDS011;766;51.502;9.752;2023-04-12T13:03:01;1.70;;;1.00;;
1545;SDS011;766;51.502;9.752;2023-04-12T13:05:30;3.67;;;1.25;;
1545;SDS011;766;51.502;9.752;2023-04-12T13:07:59;1.27;;;0.80;;
1545;SDS011;766;51.502;9.752;2023-04-12T13:10:28;1.73;;;1.02;;
1545;SDS011;766;51.502;9.752;2023-04-12T13:12:56;3.10;;;1.15;;
1545;SDS011;766;51.502;9.752;2023-04-12T13:15:27;2.97;;;1.10;;
1545;SDS011;766;51.502;9.752;2023-04-12T13:17:55;2.55;;;1.00;;
1545;SDS011;766;51.502;9.752;2023-04-12T13:20:25;2.45;;;1.10;;
1545;SDS011;766;51.502;9.752;2023-04-12T13:22:54;2.35;;;1.00;;
1545;SDS011;766;51.502;9.752;2023-04-12T13:25:23;3.85;;;0.98;;
1545;SDS011;766;51.502;9.752;2023-04-12T13:27:52;0.95;;;0.75;;
1545;SDS011;766;51.502;9.752;2023-04-12T13:30:20;3.80;;;1.05;;
1545;SDS011;766;51.502;9.752;2023-04-12T13:32:49;1.38;;;0.80;;
1545;SDS011;766;51.502;9.752;2023-04-12T13:35:18;1.60;;;0.90;;
1545;SDS011;766;51.502;9.752;2023-04-12T13:37:47;1.75;;;1.15;;
1545;SDS011;766;51.502;9.752;2023-04-12T13:40:16;2.08;;;1.08;;
1545;SDS011;766;51.502;9.752;2023-04-12T13:42:44;1.60;;;0.80;;
1545;SDS011;766;51.502;9.752;2023-04-12T13:45:13;2.00;;;1.00;;
1545;SDS011;766;51.502;9.752;2023-04-12T13:47:42;1.98;;;1.15;;
1545;SDS011;766;51.502;9.752;2023-04-12T13:50:10;0.98;;;0.70;;
1545;SDS011;766;51.502;9.752;2023-04-12T13:52:38;1.52;;;1.08;;
1545;SDS011;766;51.502;9.752;2023-04-12T13:55:08;1.50;;;0.80;;
1545;SDS011;766;51.502;9.752;2023-04-12T13:57:37;2.15;;;1.00;;
1545;SDS011;766;51.502;9.752;2023-04-12T14:00:05;1.52;;;0.70;;
1545;SDS011;766;51.502;9.752;2023-04-12T14:02:35;0.70;;;0.70;;
1545;SDS011;766;51.502;9.752;2023-04-12T14:05:04;0.63;;;0.63;;
1545;SDS011;766;51.502;9.752;2023-04-12T14:07:34;1.10;;;0.50;;
1545;SDS011;766;51.502;9.752;2023-04-12T14:10:02;0.80;;;0.80;;
1545;SDS011;766;51.502;9.752;2023-04-12T14:12:32;1.23;;;0.70;;
1545;SDS011;766;51.502;9.752;2023-04-12T14:15:04;0.50;;;0.50;;
1545;SDS011;766;51.502;9.752;2023-04-12T14:17:33;0.73;;;0.70;;
1545;SDS011;766;51.502;9.752;2023-04-12T14:20:02;1.27;;;0.70;;
1545;SDS011;766;51.502;9.752;2023-04-12T14:22:32;0.70;;;0.70;;
1545;SDS011;766;51.502;9.752;2023-04-12T14:25:05;0.90;;;0.65;;
1545;SDS011;766;51.502;9.752;2023-04-12T14:27:35;1.73;;;0.90;;
1545;SDS011;766;51.502;9.752;2023-04-12T14:30:04;1.35;;;0.60;;
1545;SDS011;766;51.502;9.752;2023-04-12T14:32:33;3.33;;;1.00;;
1545;SDS011;766;51.502;9.752;2023-04-12T14:35:01;4.30;;;1.00;;
1545;SDS011;766;51.502;9.752;2023-04-12T14:37:30;2.53;;;0.85;;
1545;SDS011;766;51.502;9.752;2023-04-12T14:39:59;0.88;;;0.88;;
1545;SDS011;766;51.502;9.752;2023-04-12T14:42:27;1.08;;;0.98;;
1545;SDS011;766;51.502;9.752;2023-04-12T14:44:57;3.67;;;0.80;;
1545;SDS011;766;51.502;9.752;2023-04-12T14:47:27;1.05;;;0.95;;
1545;SDS011;766;51.502;9.752;2023-04-12T14:49:55;1.02;;;0.80;;
1545;SDS011;766;51.502;9.752;2023-04-12T14:52:24;1.48;;;1.00;;
1545;SDS011;766;51.502;9.752;2023-04-12T14:54:53;1.20;;;1.10;;
1545;SDS011;766;51.502;9.752;2023-04-12T14:57:22;1.92;;;1.42;;
1545;SDS011;766;51.502;9.752;2023-04-12T14:59:51;1.55;;;1.45;;
1545;SDS011;766;51.502;9.752;2023-04-12T15:02:21;1.50;;;0.90;;
1545;SDS011;766;51.502;9.752;2023-04-12T15:04:51;2.38;;;0.93;;
1545;SDS011;766;51.502;9.752;2023-04-12T15:07:20;2.88;;;0.93;;
1545;SDS011;766;51.502;9.752;2023-04-12T15:09:48;1.10;;;0.98;;
1545;SDS011;766;51.502;9.752;2023-04-12T15:12:16;0.98;;;0.88;;
1545;SDS011;766;51.502;9.752;2023-04-12T15:14:45;1.55;;;1.20;;
1545;SDS011;766;51.502;9.752;2023-04-12T15:17:16;1.75;;;1.38;;
1545;SDS011;766;51.502;9.752;2023-04-12T15:19:46;1.08;;;0.82;;
1545;SDS011;766;51.502;9.752;2023-04-12T15:22:14;3.58;;;1.20;;
1545;SDS011;766;51.502;9.752;2023-04-12T15:24:45;2.45;;;1.23;;
1545;SDS011;766;51.502;9.752;2023-04-12T15:27:13;1.75;;;1.15;;
1545;SDS011;766;51.502;9.752;2023-04-12T15:29:41;3.63;;;1.48;;
1545;SDS011;766;51.502;9.752;2023-04-12T15:32:10;1.35;;;1.10;;
1545;SDS011;766;51.502;9.752;2023-04-12T15:34:38;3.45;;;1.80;;
1545;SDS011;766;51.502;9.752;2023-04-12T15:37:08;4.90;;;2.30;;
1545;SDS011;766;51.502;9.752;2023-04-12T15:39:37;2.42;;;2.15;;
1545;SDS011;766;51.502;9.752;2023-04-12T15:42:05;3.42;;;2.35;;
1545;SDS011;766;51.502;9.752;2023-04-12T15:44:33;2.75;;;2.55;;
1545;SDS011;766;51.502;9.752;2023-04-12T15:47:02;3.30;;;2.55;;
1545;SDS011;766;51.502;9.752;2023-04-12T15:49:37;3.53;;;2.78;;
1545;SDS011;766;51.502;9.752;2023-04-12T15:52:07;3.75;;;2.88;;
1545;SDS011;766;51.502;9.752;2023-04-12T15:54:38;3.92;;;2.88;;
1545;SDS011;766;51.502;9.752;2023-04-12T15:57:09;3.58;;;2.40;;
1545;SDS011;766;51.502;9.752;2023-04-12T15:59:38;2.67;;;1.52;;
1545;SDS011;766;51.502;9.752;2023-04-12T16:02:07;2.35;;;1.98;;
1545;SDS011;766;51.502;9.752;2023-04-12T16:04:36;1.98;;;1.75;;